CheckWX is a tool to help pilots better visualize weather data.  It is not intended as a substitute for an official pre-flight weather briefing.

05:50:40 UTC

KHFY METAR
Indy South Greenwood Airport
Indianapolis, Indiana, USA
Current

16 mins ago

KHFY 240535Z AUTO 17016G24KT 10SM OVC009 14/13 A2948 RMK AO2 T01350126
Observed
Feb-24 @ 05:35 UTC
Wind
  • 170° at 16 KTS
  • Gusting to 24 KTS
Visibility
10 SM
Flight Rules
IFR
Cloud Levels
  • Overcast at 900' AGL
Temperature
14°C / 57°F
Dewpoint
13°C / 55°F
Humidity
94%
Altimeter
29.48" Hg
Pressure
998.32 hPa
Previous

36 mins ago

KHFY 240515Z AUTO 17016G20KT 10SM OVC009 14/13 A2949 RMK AO2 T01350126
Observed
Feb-24 @ 05:15 UTC
Wind
  • 170° at 16 KTS
  • Gusting to 20 KTS
Visibility
10 SM
Flight Rules
IFR
Cloud Levels
  • Overcast at 900' AGL
Temperature
14°C / 57°F
Dewpoint
13°C / 55°F
Humidity
94%
Altimeter
29.49" Hg
Pressure
998.62 hPa
Previous

56 mins ago

KHFY 240455Z AUTO 16014G22KT 10SM OVC009 14/13 A2950 RMK AO2 T01350126
Observed
Feb-24 @ 04:55 UTC
Wind
  • 160° at 14 KTS
  • Gusting to 22 KTS
Visibility
10 SM
Flight Rules
IFR
Cloud Levels
  • Overcast at 900' AGL
Temperature
14°C / 57°F
Dewpoint
13°C / 55°F
Humidity
94%
Altimeter
29.5" Hg
Pressure
999.02 hPa